createdAt,value
2016-08-22T00:00:48.218Z,0
2016-08-22T00:01:48.903Z,0
2016-08-22T00:02:48.203Z,0
2016-08-22T00:03:48.903Z,0
2016-08-22T00:04:48.198Z,0
2016-08-22T00:05:48.906Z,0
2016-08-22T00:06:48.903Z,0
2016-08-22T00:07:48.902Z,0
2016-08-22T00:08:48.918Z,0
2016-08-22T00:09:48.899Z,0
2016-08-22T00:10:48.903Z,0
2016-08-22T00:11:48.902Z,0
2016-08-22T00:12:48.898Z,0
2016-08-22T00:13:48.899Z,0
2016-08-22T00:14:48.899Z,0
2016-08-22T00:15:46.783Z,0
2016-08-22T00:16:48.891Z,0
2016-08-22T00:17:48.891Z,0
2016-08-22T00:18:48.907Z,0
2016-08-22T00:19:48.186Z,0
2016-08-22T00:20:48.896Z,0
2016-08-22T00:21:48.896Z,0
2016-08-22T00:22:48.182Z,0
2016-08-22T00:23:48.891Z,0
2016-08-22T00:24:48.187Z,0
2016-08-22T00:25:48.891Z,0
2016-08-22T00:26:48.187Z,0
2016-08-22T00:27:47.479Z,0
2016-08-22T00:28:48.887Z,0
2016-08-22T00:29:48.200Z,0
2016-08-22T00:30:48.887Z,0
2016-08-22T00:31:48.887Z,0
2016-08-22T00:32:48.887Z,0
2016-08-22T00:33:48.232Z,0
2016-08-22T00:34:48.892Z,0
2016-08-22T00:35:48.184Z,0
2016-08-22T00:36:48.884Z,0
2016-08-22T00:37:48.180Z,0
2016-08-22T00:38:48.180Z,0
2016-08-22T00:39:48.179Z,0
2016-08-22T00:40:48.180Z,0
2016-08-22T00:41:48.176Z,0
2016-08-22T00:42:47.467Z,0
2016-08-22T00:43:48.881Z,0
2016-08-22T00:44:48.179Z,0
2016-08-22T00:45:48.187Z,0
2016-08-22T00:46:48.876Z,0
2016-08-22T00:47:48.877Z,0
2016-08-22T00:48:48.183Z,0
2016-08-22T00:49:48.172Z,0
2016-08-22T00:50:48.880Z,0
2016-08-22T00:51:48.884Z,0
2016-08-22T00:52:48.168Z,0
2016-08-22T00:53:48.878Z,0
2016-08-22T00:54:48.876Z,0
2016-08-22T00:55:48.872Z,0
2016-08-22T00:56:48.869Z,0
2016-08-22T00:57:47.461Z,0
2016-08-22T00:58:48.164Z,0
2016-08-22T00:59:48.872Z,0
2016-08-22T01:00:48.873Z,0
2016-08-22T01:01:48.869Z,0
2016-08-22T01:02:48.164Z,0
2016-08-22T01:03:48.165Z,0
2016-08-22T01:04:48.864Z,0
2016-08-22T01:05:48.864Z,0
2016-08-22T01:06:48.161Z,0
2016-08-22T01:07:48.865Z,0
2016-08-22T01:08:48.860Z,0
2016-08-22T01:09:48.882Z,0
2016-08-22T01:10:48.861Z,0
2016-08-22T01:11:48.152Z,0
2016-08-22T01:12:48.869Z,0
2016-08-22T01:13:48.861Z,0
2016-08-22T01:14:48.153Z,0
2016-08-22T01:15:47.450Z,0
2016-08-22T01:16:48.857Z,0
2016-08-22T01:17:48.866Z,0
2016-08-22T01:18:48.865Z,0
2016-08-22T01:19:48.153Z,0
2016-08-22T01:20:48.857Z,0
2016-08-22T01:21:48.153Z,0
2016-08-22T01:22:48.152Z,0
2016-08-22T01:23:48.854Z,0
2016-08-22T01:24:48.149Z,0
2016-08-22T01:25:48.861Z,0
2016-08-22T01:26:48.853Z,0
2016-08-22T01:27:47.445Z,0
2016-08-22T01:28:48.861Z,0
2016-08-22T01:29:47.445Z,0
2016-08-22T01:30:47.437Z,0
2016-08-22T01:31:48.857Z,0
2016-08-22T01:32:48.846Z,0
2016-08-22T01:33:48.846Z,0
2016-08-22T01:34:48.846Z,0
2016-08-22T01:35:48.146Z,0
2016-08-22T01:36:48.846Z,0
2016-08-22T01:37:48.846Z,0
2016-08-22T01:38:48.142Z,0
2016-08-22T01:39:48.845Z,0
2016-08-22T01:40:48.846Z,0
2016-08-22T01:41:48.841Z,0
2016-08-22T01:42:48.837Z,0
2016-08-22T01:43:48.854Z,0
2016-08-22T01:44:47.434Z,0
2016-08-22T01:45:48.838Z,0
2016-08-22T01:46:48.838Z,0
2016-08-22T01:47:48.858Z,0
2016-08-22T01:48:48.141Z,0
2016-08-22T01:49:48.134Z,0
2016-08-22T01:50:48.130Z,0
2016-08-22T01:51:48.834Z,0
2016-08-22T01:52:48.838Z,0
2016-08-22T01:53:48.835Z,0
2016-08-22T01:54:48.131Z,0
2016-08-22T01:55:48.138Z,0
2016-08-22T01:56:48.833Z,0
2016-08-22T01:57:48.827Z,0
2016-08-22T01:58:48.830Z,0
2016-08-22T01:59:48.838Z,0
2016-08-22T02:00:48.830Z,0
2016-08-22T02:01:48.832Z,0
2016-08-22T02:02:47.426Z,0
2016-08-22T02:03:48.127Z,0
2016-08-22T02:04:48.826Z,0
2016-08-22T02:05:48.826Z,0
2016-08-22T02:06:48.827Z,0
2016-08-22T02:07:48.118Z,0
2016-08-22T02:08:48.823Z,0
2016-08-22T02:09:48.119Z,0
2016-08-22T02:10:48.814Z,0
2016-08-22T02:11:48.843Z,0
2016-08-22T02:12:48.819Z,0
2016-08-22T02:13:48.819Z,0
2016-08-22T02:14:48.827Z,0
2016-08-22T02:15:48.818Z,0
2016-08-22T02:16:48.818Z,0
2016-08-22T02:17:48.117Z,0
2016-08-22T02:18:48.123Z,0
2016-08-22T02:19:48.111Z,0
2016-08-22T02:20:48.810Z,0
2016-08-22T02:21:48.814Z,0
2016-08-22T02:22:48.814Z,0
2016-08-22T02:23:48.820Z,0
2016-08-22T02:24:48.817Z,0
2016-08-22T02:25:48.811Z,0
2016-08-22T02:26:48.811Z,0
2016-08-22T02:27:48.806Z,0
2016-08-22T02:28:48.116Z,0
2016-08-22T02:29:48.811Z,0
2016-08-22T02:30:48.810Z,0
2016-08-22T02:31:47.403Z,0
2016-08-22T02:32:48.807Z,0
2016-08-22T02:33:48.202Z,0
2016-08-22T02:34:48.104Z,0
2016-08-22T02:35:48.803Z,0
2016-08-22T02:36:48.799Z,0
2016-08-22T02:37:48.804Z,0
2016-08-22T02:38:48.107Z,0
2016-08-22T02:39:48.107Z,0
2016-08-22T02:40:47.396Z,0
2016-08-22T02:41:48.800Z,0
2016-08-22T02:42:48.095Z,0
2016-08-22T02:43:48.800Z,0
2016-08-22T02:44:48.792Z,0
2016-08-22T02:45:48.795Z,0
2016-08-22T02:46:48.791Z,0
2016-08-22T02:47:48.094Z,0
2016-08-22T02:48:48.103Z,0
2016-08-22T02:49:48.796Z,0
2016-08-22T02:50:48.796Z,0
2016-08-22T02:51:48.796Z,0
2016-08-22T02:52:48.796Z,0
2016-08-22T02:53:48.792Z,0
2016-08-22T02:54:48.812Z,0
2016-08-22T02:55:48.800Z,0
2016-08-22T02:56:48.788Z,0
2016-08-22T02:57:48.101Z,0
2016-08-22T02:58:48.789Z,0
2016-08-22T02:59:48.080Z,0
2016-08-22T03:00:48.092Z,0
2016-08-22T03:01:48.088Z,0
2016-08-22T03:02:48.776Z,0
2016-08-22T03:03:48.780Z,0
2016-08-22T03:04:48.081Z,0
2016-08-22T03:05:48.780Z,0
2016-08-22T03:06:48.933Z,0
2016-08-22T03:07:47.376Z,0
2016-08-22T03:08:48.085Z,0
2016-08-22T03:09:48.076Z,0
2016-08-22T03:10:48.072Z,0
2016-08-22T03:11:48.076Z,0
2016-08-22T03:12:48.781Z,0
2016-08-22T03:13:48.077Z,0
2016-08-22T03:14:47.368Z,0
2016-08-22T03:15:48.089Z,0
2016-08-22T03:16:48.077Z,0
2016-08-22T03:17:48.781Z,0
2016-08-22T03:18:48.777Z,0
2016-08-22T03:19:48.074Z,0
2016-08-22T03:20:48.066Z,0
2016-08-22T03:21:47.370Z,0
2016-08-22T03:22:48.070Z,0
2016-08-22T03:23:48.069Z,0
2016-08-22T03:24:48.774Z,0
2016-08-22T03:25:48.770Z,0
2016-08-22T03:26:48.770Z,0
2016-08-22T03:27:48.062Z,0
2016-08-22T03:28:48.778Z,0
2016-08-22T03:29:48.762Z,0
2016-08-22T03:30:48.062Z,0
2016-08-22T03:31:48.774Z,0
2016-08-22T03:32:48.766Z,0
2016-08-22T03:33:48.062Z,0
2016-08-22T03:34:48.074Z,0
2016-08-22T03:35:48.762Z,0
2016-08-22T03:36:48.762Z,0
2016-08-22T03:37:48.078Z,0
2016-08-22T03:38:48.058Z,0
2016-08-22T03:39:48.058Z,0
2016-08-22T03:40:48.054Z,0
2016-08-22T03:41:48.058Z,0
2016-08-22T03:42:47.354Z,0
2016-08-22T03:43:48.758Z,0
2016-08-22T03:44:48.054Z,0
2016-08-22T03:45:48.766Z,0
2016-08-22T03:46:48.767Z,0
2016-08-22T03:47:48.755Z,0
2016-08-22T03:48:48.755Z,0
2016-08-22T03:49:48.755Z,0
2016-08-22T03:50:48.046Z,0
2016-08-22T03:51:48.750Z,0
2016-08-22T03:52:48.752Z,0
2016-08-22T03:53:48.751Z,0
2016-08-22T03:54:48.046Z,0
2016-08-22T03:55:48.042Z,0
2016-08-22T03:56:48.755Z,0
2016-08-22T03:57:48.755Z,0
2016-08-22T03:58:49.062Z,0
2016-08-22T03:59:48.046Z,0
2016-08-22T04:00:48.750Z,0
2016-08-22T04:01:48.743Z,0
2016-08-22T04:02:48.747Z,0
2016-08-22T04:03:48.747Z,0
2016-08-22T04:04:48.734Z,0
2016-08-22T04:05:48.738Z,0
2016-08-22T04:06:48.043Z,0
2016-08-22T04:07:48.743Z,0
2016-08-22T04:08:48.739Z,0
2016-08-22T04:09:48.735Z,0
2016-08-22T04:10:48.038Z,0
2016-08-22T04:11:48.737Z,0
2016-08-22T04:12:48.739Z,0
2016-08-22T04:13:48.031Z,0
2016-08-22T04:14:48.743Z,0
2016-08-22T04:15:48.731Z,0
2016-08-22T04:16:48.731Z,0
2016-08-22T04:17:48.740Z,0
2016-08-22T04:18:48.731Z,0
2016-08-22T04:19:48.028Z,0
2016-08-22T04:20:48.727Z,0
2016-08-22T04:21:48.732Z,0
2016-08-22T04:22:48.728Z,0
2016-08-22T04:23:48.727Z,0
2016-08-22T04:24:48.747Z,0
2016-08-22T04:25:48.735Z,0
2016-08-22T04:26:48.723Z,0
2016-08-22T04:27:48.743Z,0
2016-08-22T04:28:48.731Z,0
2016-08-22T04:29:48.723Z,0
2016-08-22T04:30:48.723Z,5
2016-08-22T04:31:48.719Z,5
2016-08-22T04:32:48.719Z,5
2016-08-22T04:33:48.063Z,5
2016-08-22T04:34:48.719Z,5
2016-08-22T04:35:48.008Z,5
2016-08-22T04:36:48.011Z,10
2016-08-22T04:37:48.716Z,10
2016-08-22T04:38:48.728Z,10
2016-08-22T04:39:48.716Z,10
2016-08-22T04:40:48.016Z,10
2016-08-22T04:41:48.015Z,20
2016-08-22T04:42:48.712Z,30
2016-08-22T04:43:48.016Z,35
2016-08-22T04:44:48.712Z,40
2016-08-22T04:45:48.708Z,45
2016-08-22T04:46:48.716Z,50
2016-08-22T04:47:48.708Z,55
2016-08-22T04:48:48.004Z,55
2016-08-22T04:49:48.721Z,60
2016-08-22T04:50:48.012Z,70
2016-08-22T04:51:48.008Z,75
2016-08-22T04:52:47.296Z,80
2016-08-22T04:53:48.705Z,85
2016-08-22T04:54:48.700Z,95
2016-08-22T04:55:48.004Z,100
2016-08-22T04:56:48.703Z,105
2016-08-22T04:57:47.992Z,110
2016-08-22T04:58:48.700Z,115
2016-08-22T04:59:47.304Z,120
2016-08-22T05:00:48.704Z,125
2016-08-22T05:01:47.292Z,130
2016-08-22T05:02:48.701Z,135
2016-08-22T05:03:47.288Z,140
2016-08-22T05:04:48.708Z,145
2016-08-22T05:05:48.701Z,150
2016-08-22T05:06:48.718Z,160
2016-08-22T05:07:48.700Z,165
2016-08-22T05:08:48.704Z,175
2016-08-22T05:09:47.292Z,185
2016-08-22T05:10:48.008Z,185
2016-08-22T05:11:47.996Z,200
2016-08-22T05:12:48.700Z,205
2016-08-22T05:13:48.700Z,205
2016-08-22T05:14:48.000Z,215
2016-08-22T05:15:48.705Z,225
2016-08-22T05:16:48.000Z,230
2016-08-22T05:17:48.009Z,235
2016-08-22T05:18:48.001Z,245
2016-08-22T05:19:48.001Z,245
2016-08-22T05:20:48.709Z,245
2016-08-22T05:21:48.709Z,250
2016-08-22T05:22:48.013Z,255
2016-08-22T05:23:48.709Z,260
2016-08-22T05:24:48.013Z,270
2016-08-22T05:25:48.729Z,280
2016-08-22T05:26:48.713Z,290
2016-08-22T05:27:48.721Z,290
2016-08-22T05:28:48.717Z,290
2016-08-22T05:29:48.029Z,295
2016-08-22T05:30:48.722Z,300
2016-08-22T05:31:48.033Z,300
2016-08-22T05:32:48.021Z,310
2016-08-22T05:33:48.721Z,325
2016-08-22T05:34:48.729Z,345
2016-08-22T05:35:48.029Z,350
2016-08-22T05:36:48.033Z,365
2016-08-22T05:37:48.733Z,355
2016-08-22T05:38:48.742Z,350
2016-08-22T05:39:48.754Z,360
2016-08-22T05:40:48.044Z,380
2016-08-22T05:41:48.041Z,395
2016-08-22T05:42:48.046Z,385
2016-08-22T05:43:48.753Z,385
2016-08-22T05:44:48.754Z,395
2016-08-22T05:45:48.758Z,415
2016-08-22T05:46:48.054Z,405
2016-08-22T05:47:48.058Z,415
2016-08-22T05:48:48.062Z,440
2016-08-22T05:49:48.062Z,435
2016-08-22T05:50:48.078Z,435
2016-08-22T05:51:48.774Z,470
2016-08-22T05:52:48.774Z,490
2016-08-22T05:53:48.777Z,500
2016-08-22T05:54:48.782Z,510
2016-08-22T05:55:48.790Z,540
2016-08-22T05:56:48.105Z,555
2016-08-22T05:57:48.094Z,560
2016-08-22T05:58:47.385Z,570
2016-08-22T05:59:48.802Z,565
2016-08-22T06:00:47.394Z,565
2016-08-22T06:01:48.817Z,575
2016-08-22T06:02:48.106Z,590
2016-08-22T06:03:48.814Z,635
2016-08-22T06:04:48.818Z,635
2016-08-22T06:05:48.118Z,625
2016-08-22T06:06:48.826Z,620
2016-08-22T06:07:48.830Z,640
2016-08-22T06:08:48.130Z,655
2016-08-22T06:09:48.850Z,670
2016-08-22T06:10:48.139Z,680
2016-08-22T06:11:48.146Z,665
2016-08-22T06:12:48.863Z,590
2016-08-22T06:13:48.859Z,610
2016-08-22T06:14:48.862Z,520
2016-08-22T06:15:48.870Z,560
2016-08-22T06:16:48.174Z,550
2016-08-22T06:17:48.894Z,560
2016-08-22T06:18:48.886Z,630
2016-08-22T06:19:48.186Z,605
2016-08-22T06:20:47.494Z,435
2016-08-22T06:21:48.198Z,295
2016-08-22T06:22:48.199Z,285
2016-08-22T06:23:48.207Z,290
2016-08-22T06:24:47.507Z,315
2016-08-22T06:25:48.935Z,250
2016-08-22T06:26:48.923Z,250
2016-08-22T06:27:48.919Z,255
2016-08-22T06:28:48.947Z,290
2016-08-22T06:29:48.939Z,340
2016-08-22T06:30:48.239Z,730
2016-08-22T06:31:48.248Z,535
2016-08-22T06:32:48.951Z,685
2016-08-22T06:33:49.007Z,835
2016-08-22T06:34:48.967Z,830
2016-08-22T06:35:48.267Z,595
2016-08-22T06:36:48.975Z,900
2016-08-22T06:37:48.275Z,870
2016-08-22T06:38:48.984Z,440
2016-08-22T06:39:48.988Z,350
2016-08-22T06:40:49.000Z,315
2016-08-22T06:41:48.304Z,330
2016-08-22T06:42:49.004Z,310
2016-08-22T06:43:48.303Z,305
2016-08-22T06:44:49.015Z,315
2016-08-22T06:45:49.020Z,315
2016-08-22T06:46:49.023Z,300
2016-08-22T06:47:49.032Z,290
2016-08-22T06:48:49.036Z,295
2016-08-22T06:49:48.339Z,280
2016-08-22T06:50:48.340Z,275
2016-08-22T06:51:48.355Z,270
2016-08-22T06:52:49.056Z,270
2016-08-22T06:53:49.064Z,265
2016-08-22T06:54:49.068Z,270
2016-08-22T06:55:48.373Z,315
2016-08-22T06:56:49.076Z,375
2016-08-22T06:57:47.677Z,385
2016-08-22T06:58:49.085Z,410
2016-08-22T06:59:49.092Z,635
2016-08-22T07:00:49.096Z,830
2016-08-22T07:01:47.688Z,875
2016-08-22T07:02:47.696Z,865
2016-08-22T07:03:48.405Z,860
2016-08-22T07:04:49.120Z,875
2016-08-22T07:05:49.117Z,915
2016-08-22T07:06:47.717Z,915
2016-08-22T07:07:47.725Z,925
2016-08-22T07:08:49.132Z,775
2016-08-22T07:09:49.137Z,935
2016-08-22T07:10:48.445Z,910
2016-08-22T07:11:49.148Z,580
2016-08-22T07:12:49.172Z,590
2016-08-22T07:13:48.477Z,635
2016-08-22T07:14:48.461Z,890
2016-08-22T07:15:47.782Z,655
2016-08-22T07:16:48.477Z,790
2016-08-22T07:17:47.772Z,585
2016-08-22T07:18:49.192Z,595
2016-08-22T07:19:49.193Z,690
2016-08-22T07:20:49.213Z,815
2016-08-22T07:21:49.205Z,720
2016-08-22T07:22:49.214Z,445
2016-08-22T07:23:49.217Z,700
2016-08-22T07:24:49.222Z,420
2016-08-22T07:25:47.825Z,450
2016-08-22T07:26:48.534Z,1105
2016-08-22T07:27:49.242Z,1035
2016-08-22T07:28:47.842Z,1040
2016-08-22T07:29:47.850Z,1090
2016-08-22T07:30:47.854Z,1040
2016-08-22T07:31:49.265Z,1020
2016-08-22T07:32:48.566Z,1050
2016-08-22T07:33:48.574Z,860
2016-08-22T07:34:48.577Z,890
2016-08-22T07:35:48.586Z,750
2016-08-22T07:36:47.894Z,1125
2016-08-22T07:37:49.301Z,1140
2016-08-22T07:38:47.906Z,1115
2016-08-22T07:39:49.322Z,1115
2016-08-22T07:40:49.327Z,1100
2016-08-22T07:41:49.343Z,1145
2016-08-22T07:42:49.338Z,1220
2016-08-22T07:43:48.638Z,1140
2016-08-22T07:44:48.646Z,1110
2016-08-22T07:45:49.358Z,1130
2016-08-22T07:46:49.369Z,1035
2016-08-22T07:47:48.679Z,1075
2016-08-22T07:48:49.378Z,1090
2016-08-22T07:49:48.682Z,1145
2016-08-22T07:50:48.690Z,1140
2016-08-22T07:51:49.403Z,1050
2016-08-22T07:52:48.003Z,1010
2016-08-22T07:53:48.718Z,1075
2016-08-22T07:54:49.423Z,1180
2016-08-22T07:55:48.746Z,1100
2016-08-22T07:56:49.438Z,1100
2016-08-22T07:57:49.454Z,1045
2016-08-22T07:58:49.467Z,1060
2016-08-22T07:59:48.754Z,1080
2016-08-22T08:00:48.763Z,1070
2016-08-22T08:01:48.771Z,1055
2016-08-22T08:02:49.483Z,1020
2016-08-22T08:03:49.507Z,1045
2016-08-22T08:04:49.499Z,1025
2016-08-22T08:05:48.115Z,1000
2016-08-22T08:06:48.810Z,1075
2016-08-22T08:07:49.539Z,1065
2016-08-22T08:08:49.543Z,1015
2016-08-22T08:09:48.131Z,1060
2016-08-22T08:10:49.547Z,1085
2016-08-22T08:11:49.551Z,1060
2016-08-22T08:12:48.860Z,1090
2016-08-22T08:13:48.868Z,1095
2016-08-22T08:14:49.579Z,1140
2016-08-22T08:15:49.587Z,1200
2016-08-22T08:16:49.592Z,1230
2016-08-22T08:17:49.600Z,1125
2016-08-22T08:18:48.908Z,1070
2016-08-22T08:19:49.616Z,1060
2016-08-22T08:20:49.623Z,1100
2016-08-22T08:21:49.627Z,1025
2016-08-22T08:22:49.636Z,980
2016-08-22T08:23:48.952Z,955
2016-08-22T08:24:49.652Z,925
2016-08-22T08:25:48.957Z,870
2016-08-22T08:26:48.260Z,685
2016-08-22T08:27:49.680Z,680
2016-08-22T08:28:48.980Z,715
2016-08-22T08:29:48.984Z,715
2016-08-22T08:30:49.716Z,810
2016-08-22T08:31:49.016Z,870
2016-08-22T08:32:49.007Z,780
2016-08-22T08:33:49.721Z,650
2016-08-22T08:34:49.729Z,560
2016-08-22T08:35:49.736Z,485
2016-08-22T08:36:49.041Z,390
2016-08-22T08:37:47.645Z,305
2016-08-22T08:38:49.056Z,270
2016-08-22T08:39:48.357Z,250
2016-08-22T08:40:49.077Z,210
2016-08-22T08:41:48.377Z,185
2016-08-22T08:42:49.784Z,185
2016-08-22T08:43:49.797Z,180
2016-08-22T08:44:49.800Z,180
2016-08-22T08:45:49.105Z,170
2016-08-22T08:46:48.405Z,170
2016-08-22T08:47:49.841Z,165
2016-08-22T08:48:48.420Z,160
2016-08-22T08:49:49.137Z,165
2016-08-22T08:50:49.841Z,165
2016-08-22T08:51:49.850Z,160
2016-08-22T08:52:49.857Z,155
2016-08-22T08:53:49.862Z,155
2016-08-22T08:54:49.870Z,155
2016-08-22T08:55:49.868Z,155
2016-08-22T08:56:49.178Z,155
2016-08-22T08:57:49.890Z,155
2016-08-22T08:58:49.893Z,150
2016-08-22T08:59:49.198Z,140
2016-08-22T09:00:48.502Z,150
2016-08-22T09:01:49.218Z,150
2016-08-22T09:02:49.218Z,145
2016-08-22T09:03:49.932Z,140
2016-08-22T09:04:49.940Z,140
2016-08-22T09:05:49.234Z,140
2016-08-22T09:06:49.950Z,140
2016-08-22T09:07:49.248Z,145
2016-08-22T09:08:49.257Z,140
2016-08-22T09:09:49.962Z,145
2016-08-22T09:10:49.970Z,145
2016-08-22T09:11:49.974Z,150
2016-08-22T09:12:49.983Z,160
2016-08-22T09:13:49.286Z,160
2016-08-22T09:14:49.993Z,160
2016-08-22T09:15:49.998Z,155
2016-08-22T09:16:49.301Z,150
2016-08-22T09:17:50.010Z,160
2016-08-22T09:18:50.021Z,160
2016-08-22T09:19:49.322Z,155
2016-08-22T09:20:50.026Z,145
2016-08-22T09:21:50.035Z,135
2016-08-22T09:22:48.631Z,135
2016-08-22T09:23:48.634Z,130
2016-08-22T09:24:50.067Z,110
2016-08-22T09:25:50.055Z,110
2016-08-22T09:26:50.059Z,120
2016-08-22T09:27:49.359Z,130
2016-08-22T09:28:50.071Z,125
2016-08-22T09:29:49.371Z,115
2016-08-22T09:30:49.375Z,120
2016-08-22T09:31:49.387Z,120
2016-08-22T09:32:49.391Z,115
2016-08-22T09:33:50.195Z,120
2016-08-22T09:34:49.407Z,120
2016-08-22T09:35:48.695Z,120
2016-08-22T09:36:50.107Z,120
2016-08-22T09:37:49.435Z,115
2016-08-22T09:38:50.119Z,115
2016-08-22T09:39:47.308Z,115
2016-08-22T09:40:50.127Z,115
2016-08-22T09:41:50.139Z,115
2016-08-22T09:42:49.431Z,115
2016-08-22T09:43:48.732Z,115
2016-08-22T09:44:50.143Z,115
2016-08-22T09:45:49.444Z,115
2016-08-22T09:46:50.159Z,115
2016-08-22T09:47:50.159Z,115
2016-08-22T09:48:50.172Z,115
2016-08-22T09:49:50.172Z,115
2016-08-22T09:50:50.184Z,115
2016-08-22T09:51:50.175Z,115
2016-08-22T09:52:49.476Z,115
2016-08-22T09:53:50.184Z,120
2016-08-22T09:54:50.191Z,125
2016-08-22T09:55:49.492Z,130
2016-08-22T09:56:48.788Z,130
2016-08-22T09:57:49.499Z,130
2016-08-22T09:58:49.504Z,130
2016-08-22T09:59:49.504Z,125
2016-08-22T10:00:49.507Z,120
2016-08-22T10:01:50.218Z,120
2016-08-22T10:02:49.516Z,120
2016-08-22T10:03:50.226Z,120
2016-08-22T10:04:50.236Z,120
2016-08-22T10:05:50.236Z,120
2016-08-22T10:06:49.535Z,120
2016-08-22T10:07:49.540Z,120
2016-08-22T10:08:50.244Z,120
2016-08-22T10:09:50.259Z,125
2016-08-22T10:10:50.248Z,125
2016-08-22T10:11:49.548Z,110
2016-08-22T10:12:49.563Z,110
2016-08-22T10:13:50.260Z,115
2016-08-22T10:14:50.264Z,135
2016-08-22T10:15:49.567Z,120
2016-08-22T10:16:49.579Z,115
2016-08-22T10:17:50.284Z,115
2016-08-22T10:18:49.573Z,125
2016-08-22T10:19:50.284Z,140
2016-08-22T10:20:50.288Z,140
2016-08-22T10:21:49.584Z,140
2016-08-22T10:22:50.292Z,140
2016-08-22T10:23:49.601Z,135
2016-08-22T10:24:49.598Z,135
2016-08-22T10:25:49.600Z,130
2016-08-22T10:26:50.300Z,125
2016-08-22T10:27:50.316Z,125
2016-08-22T10:28:50.313Z,115
2016-08-22T10:29:49.624Z,115
2016-08-22T10:30:49.619Z,100
2016-08-22T10:31:49.623Z,95
2016-08-22T10:32:49.620Z,100
2016-08-22T10:33:49.625Z,100
2016-08-22T10:34:50.333Z,105
2016-08-22T10:35:48.927Z,110
2016-08-22T10:36:49.653Z,115
2016-08-22T10:37:49.649Z,125
2016-08-22T10:38:50.364Z,135
2016-08-22T10:39:50.349Z,135
2016-08-22T10:40:49.653Z,140
2016-08-22T10:41:50.356Z,140
2016-08-22T10:42:49.656Z,135
2016-08-22T10:43:48.956Z,130
2016-08-22T10:44:49.665Z,130
2016-08-22T10:45:50.369Z,125
2016-08-22T10:46:50.381Z,125
2016-08-22T10:47:50.381Z,125
2016-08-22T10:48:50.378Z,125
2016-08-22T10:49:50.377Z,130
2016-08-22T10:50:50.386Z,135
2016-08-22T10:51:50.397Z,130
2016-08-22T10:52:50.397Z,130
2016-08-22T10:53:50.397Z,130
2016-08-22T10:54:50.396Z,125
2016-08-22T10:55:50.397Z,125
2016-08-22T10:56:50.417Z,120
2016-08-22T10:57:50.409Z,125
2016-08-22T10:58:50.409Z,125
2016-08-22T10:59:50.414Z,125
2016-08-22T11:00:50.418Z,125
2016-08-22T11:01:50.425Z,130
2016-08-22T11:02:50.421Z,125
2016-08-22T11:03:49.721Z,125
2016-08-22T11:04:50.437Z,110
2016-08-22T11:05:50.429Z,110
2016-08-22T11:06:50.442Z,120
2016-08-22T11:07:50.445Z,130
2016-08-22T11:08:50.441Z,140
2016-08-22T11:09:50.442Z,145
2016-08-22T11:10:50.445Z,145
2016-08-22T11:11:49.745Z,145
2016-08-22T11:12:50.450Z,150
2016-08-22T11:13:50.452Z,150
2016-08-22T11:14:50.456Z,140
2016-08-22T11:15:50.457Z,130
2016-08-22T11:16:50.474Z,120
2016-08-22T11:17:50.465Z,125
2016-08-22T11:18:50.470Z,125
2016-08-22T11:19:50.474Z,125
2016-08-22T11:20:49.781Z,120
2016-08-22T11:21:50.478Z,120
2016-08-22T11:22:50.478Z,120
2016-08-22T11:23:50.481Z,120
2016-08-22T11:24:50.498Z,125
2016-08-22T11:25:50.487Z,135
2016-08-22T11:26:50.491Z,140
2016-08-22T11:27:50.494Z,135
2016-08-22T11:28:50.494Z,135
2016-08-22T11:29:50.498Z,130
2016-08-22T11:30:50.502Z,130
2016-08-22T11:31:49.802Z,130
2016-08-22T11:32:50.506Z,130
2016-08-22T11:33:50.515Z,125
2016-08-22T11:34:50.514Z,125
2016-08-22T11:35:50.634Z,125
2016-08-22T11:36:50.527Z,125
2016-08-22T11:37:50.523Z,125
2016-08-22T11:38:50.537Z,130
2016-08-22T11:39:50.527Z,130
2016-08-22T11:40:50.535Z,130
2016-08-22T11:41:50.535Z,135
2016-08-22T11:42:50.535Z,130
2016-08-22T11:43:50.538Z,130
2016-08-22T11:44:50.543Z,125
2016-08-22T11:45:50.542Z,125
2016-08-22T11:46:50.546Z,120
2016-08-22T11:47:50.551Z,115
2016-08-22T11:48:50.547Z,110
2016-08-22T11:49:50.567Z,100
2016-08-22T11:50:50.574Z,95
2016-08-22T11:51:50.558Z,90
2016-08-22T11:52:49.858Z,90
2016-08-22T11:53:50.567Z,90
2016-08-22T11:54:50.567Z,95
2016-08-22T11:55:50.570Z,100
2016-08-22T11:56:50.575Z,105
2016-08-22T11:57:50.575Z,105
2016-08-22T11:58:50.578Z,110
2016-08-22T11:59:50.591Z,110
2016-08-22T12:00:50.584Z,105
2016-08-22T12:01:50.587Z,100
2016-08-22T12:02:50.600Z,100
2016-08-22T12:03:50.603Z,100
2016-08-22T12:04:50.603Z,100
2016-08-22T12:05:50.595Z,95
2016-08-22T12:06:50.600Z,95
2016-08-22T12:07:50.605Z,90
2016-08-22T12:08:50.612Z,90
2016-08-22T12:09:50.624Z,85
2016-08-22T12:10:50.611Z,85
2016-08-22T12:11:50.612Z,85
2016-08-22T12:12:50.620Z,85
2016-08-22T12:13:49.915Z,90
2016-08-22T12:14:50.620Z,90
2016-08-22T12:15:50.632Z,90
2016-08-22T12:16:50.624Z,90
2016-08-22T12:17:50.628Z,95
2016-08-22T12:18:50.646Z,95
2016-08-22T12:19:50.639Z,100
2016-08-22T12:20:50.636Z,105
2016-08-22T12:21:50.640Z,110
2016-08-22T12:22:50.652Z,120
2016-08-22T12:23:50.652Z,125
2016-08-22T12:24:50.648Z,125
2016-08-22T12:25:50.648Z,130
2016-08-22T12:26:50.651Z,125
2016-08-22T12:27:50.799Z,115
2016-08-22T12:28:50.656Z,105
2016-08-22T12:29:50.664Z,95
2016-08-22T12:30:50.659Z,90
2016-08-22T12:31:50.680Z,90
2016-08-22T12:32:50.673Z,95
2016-08-22T12:33:51.016Z,95
2016-08-22T12:34:50.684Z,100
2016-08-22T12:35:50.693Z,100
2016-08-22T12:36:50.684Z,100
2016-08-22T12:37:50.671Z,95
2016-08-22T12:38:50.680Z,95
2016-08-22T12:39:50.684Z,85
2016-08-22T12:40:50.684Z,80
2016-08-22T12:41:50.689Z,80
2016-08-22T12:42:50.689Z,80
2016-08-22T12:43:50.692Z,75
2016-08-22T12:44:50.705Z,75
2016-08-22T12:45:50.697Z,75
2016-08-22T12:46:50.696Z,70
2016-08-22T12:47:50.705Z,70
2016-08-22T12:48:50.808Z,70
2016-08-22T12:49:50.704Z,70
2016-08-22T12:50:50.721Z,70
2016-08-22T12:51:50.713Z,70
2016-08-22T12:52:50.713Z,70
2016-08-22T12:53:50.717Z,70
2016-08-22T12:54:50.717Z,70
2016-08-22T12:55:50.720Z,70
2016-08-22T12:56:50.721Z,70
2016-08-22T12:57:50.725Z,70
2016-08-22T12:58:50.724Z,70
2016-08-22T12:59:50.734Z,70
2016-08-22T13:00:50.741Z,65
2016-08-22T13:01:50.733Z,65
2016-08-22T13:02:50.741Z,70
2016-08-22T13:03:50.741Z,65
2016-08-22T13:04:50.733Z,65
2016-08-22T13:05:50.042Z,65
2016-08-22T13:06:50.049Z,65
2016-08-22T13:07:50.746Z,65
2016-08-22T13:08:50.749Z,65
2016-08-22T13:09:50.749Z,65
2016-08-22T13:10:50.753Z,65
2016-08-22T13:11:50.754Z,65
2016-08-22T13:12:50.758Z,65
2016-08-22T13:13:50.765Z,65
2016-08-22T13:14:50.762Z,65
2016-08-22T13:15:50.762Z,65
2016-08-22T13:16:50.778Z,65
2016-08-22T13:17:50.766Z,65
2016-08-22T13:18:50.778Z,65
2016-08-22T13:19:50.970Z,65
2016-08-22T13:20:50.773Z,60
2016-08-22T13:21:50.774Z,60
2016-08-22T13:22:50.778Z,60
2016-08-22T13:23:50.782Z,60
2016-08-22T13:24:50.781Z,60
2016-08-22T13:25:50.782Z,60
2016-08-22T13:26:50.786Z,60
2016-08-22T13:27:50.786Z,60
2016-08-22T13:28:50.786Z,60
2016-08-22T13:29:50.798Z,60
2016-08-22T13:30:50.790Z,60
2016-08-22T13:31:50.794Z,60
2016-08-22T13:32:50.087Z,60
2016-08-22T13:33:50.799Z,60
2016-08-22T13:34:50.802Z,60
2016-08-22T13:35:50.802Z,60
2016-08-22T13:36:50.803Z,60
2016-08-22T13:37:50.814Z,65
2016-08-22T13:38:50.824Z,60
2016-08-22T13:39:50.806Z,60
2016-08-22T13:40:50.111Z,60
2016-08-22T13:41:50.814Z,60
2016-08-22T13:42:50.815Z,60
2016-08-22T13:43:50.814Z,60
2016-08-22T13:44:50.818Z,60
2016-08-22T13:45:50.819Z,60
2016-08-22T13:46:50.826Z,60
2016-08-22T13:47:50.823Z,60
2016-08-22T13:48:50.826Z,60
2016-08-22T13:49:50.827Z,60
2016-08-22T13:50:50.835Z,60
2016-08-22T13:51:50.830Z,60
2016-08-22T13:52:50.135Z,60
2016-08-22T13:53:50.838Z,60
2016-08-22T13:54:50.835Z,60
2016-08-22T13:55:50.839Z,60
2016-08-22T13:57:10.791Z,60
2016-08-22T13:57:50.843Z,60
2016-08-22T13:58:50.143Z,60
2016-08-22T13:59:50.847Z,60
2016-08-22T14:00:50.846Z,60
2016-08-22T14:01:50.846Z,60
2016-08-22T14:02:50.855Z,60
2016-08-22T14:03:50.850Z,55
2016-08-22T14:04:50.863Z,55
2016-08-22T14:05:50.855Z,55
2016-08-22T14:06:50.859Z,55
2016-08-22T14:07:50.871Z,55